sensor_id;sensor_type;location;lat;lon;timestamp;P1;durP1;ratioP1;P2;durP2;ratioP2
66739;SDS011;53653;52.188;8.602;2023-03-16T00:00:46;12.23;;;4.97;;
66739;SDS011;53653;52.188;8.602;2023-03-16T00:03:12;12.30;;;5.07;;
66739;SDS011;53653;52.188;8.602;2023-03-16T00:05:50;13.80;;;4.55;;
66739;SDS011;53653;52.188;8.602;2023-03-16T00:08:17;12.13;;;4.60;;
66739;SDS011;53653;52.188;8.602;2023-03-16T00:10:45;15.32;;;4.47;;
66739;SDS011;53653;52.188;8.602;2023-03-16T00:15:39;12.23;;;4.80;;
66739;SDS011;53653;52.188;8.602;2023-03-16T00:18:13;20.08;;;5.32;;
66739;SDS011;53653;52.188;8.602;2023-03-16T00:20:38;7.70;;;3.87;;
66739;SDS011;53653;52.188;8.602;2023-03-16T00:23:04;13.57;;;4.82;;
66739;SDS011;53653;52.188;8.602;2023-03-16T00:25:29;14.13;;;4.80;;
66739;SDS011;53653;52.188;8.602;2023-03-16T00:27:58;13.00;;;4.10;;
66739;SDS011;53653;52.188;8.602;2023-03-16T00:30:28;9.60;;;4.00;;
66739;SDS011;53653;52.188;8.602;2023-03-16T00:33:06;14.27;;;5.23;;
66739;SDS011;53653;52.188;8.602;2023-03-16T00:35:31;10.40;;;4.30;;
66739;SDS011;53653;52.188;8.602;2023-03-16T00:37:58;11.43;;;4.60;;
66739;SDS011;53653;52.188;8.602;2023-03-16T00:40:24;11.90;;;4.27;;
66739;SDS011;53653;52.188;8.602;2023-03-16T00:42:49;10.50;;;3.97;;
66739;SDS011;53653;52.188;8.602;2023-03-16T00:45:15;12.70;;;4.13;;
66739;SDS011;53653;52.188;8.602;2023-03-16T00:47:40;10.67;;;4.10;;
66739;SDS011;53653;52.188;8.602;2023-03-16T00:50:07;10.30;;;4.00;;
66739;SDS011;53653;52.188;8.602;2023-03-16T00:52:33;8.57;;;3.63;;
66739;SDS011;53653;52.188;8.602;2023-03-16T00:55:01;13.17;;;4.27;;
66739;SDS011;53653;52.188;8.602;2023-03-16T00:57:28;13.20;;;4.53;;
66739;SDS011;53653;52.188;8.602;2023-03-16T00:59:54;10.97;;;4.47;;
66739;SDS011;53653;52.188;8.602;2023-03-16T01:02:20;10.20;;;4.10;;
66739;SDS011;53653;52.188;8.602;2023-03-16T01:04:48;12.93;;;4.40;;
66739;SDS011;53653;52.188;8.602;2023-03-16T01:07:15;10.40;;;4.07;;
66739;SDS011;53653;52.188;8.602;2023-03-16T01:09:42;15.43;;;4.47;;
66739;SDS011;53653;52.188;8.602;2023-03-16T01:12:12;12.18;;;4.45;;
66739;SDS011;53653;52.188;8.602;2023-03-16T01:14:39;15.73;;;4.13;;
66739;SDS011;53653;52.188;8.602;2023-03-16T01:17:06;10.68;;;4.50;;
66739;SDS011;53653;52.188;8.602;2023-03-16T01:19:33;11.70;;;4.13;;
66739;SDS011;53653;52.188;8.602;2023-03-16T01:22:02;10.07;;;4.22;;
66739;SDS011;53653;52.188;8.602;2023-03-16T01:24:33;8.75;;;3.63;;
66739;SDS011;53653;52.188;8.602;2023-03-16T01:27:00;13.02;;;4.03;;
66739;SDS011;53653;52.188;8.602;2023-03-16T01:29:26;9.95;;;3.70;;
66739;SDS011;53653;52.188;8.602;2023-03-16T01:31:54;10.27;;;3.70;;
66739;SDS011;53653;52.188;8.602;2023-03-16T01:34:21;10.32;;;3.83;;
66739;SDS011;53653;52.188;8.602;2023-03-16T01:36:48;8.63;;;3.58;;
66739;SDS011;53653;52.188;8.602;2023-03-16T01:39:22;9.98;;;3.83;;
66739;SDS011;53653;52.188;8.602;2023-03-16T01:41:48;8.90;;;3.43;;
66739;SDS011;53653;52.188;8.602;2023-03-16T01:44:15;12.48;;;4.45;;
66739;SDS011;53653;52.188;8.602;2023-03-16T01:46:42;10.02;;;3.45;;
66739;SDS011;53653;52.188;8.602;2023-03-16T01:51:59;13.73;;;4.15;;
66739;SDS011;53653;52.188;8.602;2023-03-16T01:54:32;11.57;;;4.10;;
66739;SDS011;53653;52.188;8.602;2023-03-16T02:02:23;12.07;;;4.22;;
66739;SDS011;53653;52.188;8.602;2023-03-16T02:05:04;10.18;;;4.18;;
66739;SDS011;53653;52.188;8.602;2023-03-16T02:07:39;9.70;;;4.00;;
66739;SDS011;53653;52.188;8.602;2023-03-16T02:10:08;12.23;;;4.03;;
66739;SDS011;53653;52.188;8.602;2023-03-16T02:12:36;9.60;;;3.85;;
66739;SDS011;53653;52.188;8.602;2023-03-16T02:15:02;11.88;;;4.00;;
66739;SDS011;53653;52.188;8.602;2023-03-16T02:17:29;10.43;;;4.28;;
66739;SDS011;53653;52.188;8.602;2023-03-16T02:22:45;9.68;;;3.75;;
66739;SDS011;53653;52.188;8.602;2023-03-16T02:25:13;12.32;;;4.20;;
66739;SDS011;53653;52.188;8.602;2023-03-16T02:30:37;8.23;;;3.80;;
66739;SDS011;53653;52.188;8.602;2023-03-16T02:33:04;14.93;;;4.23;;
66739;SDS011;53653;52.188;8.602;2023-03-16T02:35:30;12.25;;;3.70;;
66739;SDS011;53653;52.188;8.602;2023-03-16T02:37:56;8.82;;;3.70;;
66739;SDS011;53653;52.188;8.602;2023-03-16T02:40:28;11.98;;;4.32;;
66739;SDS011;53653;52.188;8.602;2023-03-16T02:45:35;9.13;;;3.63;;
66739;SDS011;53653;52.188;8.602;2023-03-16T02:48:04;10.57;;;3.40;;
66739;SDS011;53653;52.188;8.602;2023-03-16T02:50:33;9.93;;;3.05;;
66739;SDS011;53653;52.188;8.602;2023-03-16T02:52:58;9.70;;;3.07;;
66739;SDS011;53653;52.188;8.602;2023-03-16T02:55:25;11.23;;;4.15;;
66739;SDS011;53653;52.188;8.602;2023-03-16T02:57:51;11.47;;;3.93;;
66739;SDS011;53653;52.188;8.602;2023-03-16T03:00:17;12.48;;;3.85;;
66739;SDS011;53653;52.188;8.602;2023-03-16T03:02:45;10.45;;;3.75;;
66739;SDS011;53653;52.188;8.602;2023-03-16T03:05:11;10.47;;;3.67;;
66739;SDS011;53653;52.188;8.602;2023-03-16T03:07:37;16.00;;;3.80;;
66739;SDS011;53653;52.188;8.602;2023-03-16T03:10:05;9.67;;;3.90;;
66739;SDS011;53653;52.188;8.602;2023-03-16T03:12:32;9.05;;;3.58;;
66739;SDS011;53653;52.188;8.602;2023-03-16T03:14:58;9.35;;;3.83;;
66739;SDS011;53653;52.188;8.602;2023-03-16T03:17:31;8.38;;;2.95;;
66739;SDS011;53653;52.188;8.602;2023-03-16T03:19:58;10.23;;;3.95;;
66739;SDS011;53653;52.188;8.602;2023-03-16T03:22:26;7.37;;;2.93;;
66739;SDS011;53653;52.188;8.602;2023-03-16T03:24:52;9.80;;;3.60;;
66739;SDS011;53653;52.188;8.602;2023-03-16T03:27:18;10.07;;;3.30;;
66739;SDS011;53653;52.188;8.602;2023-03-16T03:29:48;9.75;;;3.63;;
66739;SDS011;53653;52.188;8.602;2023-03-16T03:32:13;11.27;;;3.73;;
66739;SDS011;53653;52.188;8.602;2023-03-16T03:34:39;12.20;;;4.73;;
66739;SDS011;53653;52.188;8.602;2023-03-16T03:37:06;12.30;;;4.10;;
66739;SDS011;53653;52.188;8.602;2023-03-16T03:39:34;14.40;;;4.13;;
66739;SDS011;53653;52.188;8.602;2023-03-16T03:41:59;10.13;;;3.70;;
66739;SDS011;53653;52.188;8.602;2023-03-16T03:44:27;10.60;;;3.80;;
66739;SDS011;53653;52.188;8.602;2023-03-16T03:46:53;8.52;;;3.83;;
66739;SDS011;53653;52.188;8.602;2023-03-16T03:49:19;22.70;;;3.70;;
66739;SDS011;53653;52.188;8.602;2023-03-16T03:51:46;8.82;;;4.13;;
66739;SDS011;53653;52.188;8.602;2023-03-16T03:54:15;11.32;;;3.63;;
66739;SDS011;53653;52.188;8.602;2023-03-16T03:56:50;10.02;;;3.83;;
66739;SDS011;53653;52.188;8.602;2023-03-16T03:59:16;8.37;;;3.50;;
66739;SDS011;53653;52.188;8.602;2023-03-16T04:02:05;12.70;;;4.00;;
66739;SDS011;53653;52.188;8.602;2023-03-16T04:04:45;8.63;;;4.00;;
66739;SDS011;53653;52.188;8.602;2023-03-16T04:07:12;9.27;;;4.10;;
66739;SDS011;53653;52.188;8.602;2023-03-16T04:09:38;11.30;;;3.83;;
66739;SDS011;53653;52.188;8.602;2023-03-16T04:12:10;10.07;;;4.40;;
66739;SDS011;53653;52.188;8.602;2023-03-16T04:14:36;10.48;;;4.10;;
66739;SDS011;53653;52.188;8.602;2023-03-16T04:17:05;12.10;;;3.77;;
66739;SDS011;53653;52.188;8.602;2023-03-16T04:19:33;8.65;;;4.18;;
66739;SDS011;53653;52.188;8.602;2023-03-16T04:21:59;10.75;;;4.13;;
66739;SDS011;53653;52.188;8.602;2023-03-16T04:24:24;8.03;;;3.50;;
66739;SDS011;53653;52.188;8.602;2023-03-16T04:26:50;9.30;;;4.03;;
66739;SDS011;53653;52.188;8.602;2023-03-16T04:29:18;11.00;;;4.57;;
66739;SDS011;53653;52.188;8.602;2023-03-16T04:31:46;14.30;;;4.95;;
66739;SDS011;53653;52.188;8.602;2023-03-16T04:34:12;9.83;;;4.43;;
66739;SDS011;53653;52.188;8.602;2023-03-16T04:36:38;11.23;;;4.63;;
66739;SDS011;53653;52.188;8.602;2023-03-16T04:39:04;10.82;;;4.18;;
66739;SDS011;53653;52.188;8.602;2023-03-16T04:41:31;10.95;;;4.55;;
66739;SDS011;53653;52.188;8.602;2023-03-16T04:44:15;12.07;;;4.13;;
66739;SDS011;53653;52.188;8.602;2023-03-16T04:46:41;9.93;;;4.07;;
66739;SDS011;53653;52.188;8.602;2023-03-16T04:49:08;10.15;;;3.78;;
66739;SDS011;53653;52.188;8.602;2023-03-16T04:51:35;9.43;;;3.50;;
66739;SDS011;53653;52.188;8.602;2023-03-16T04:54:06;12.30;;;4.10;;
66739;SDS011;53653;52.188;8.602;2023-03-16T04:56:34;10.63;;;3.92;;
66739;SDS011;53653;52.188;8.602;2023-03-16T04:59:03;8.67;;;3.23;;
66739;SDS011;53653;52.188;8.602;2023-03-16T05:01:38;11.00;;;5.00;;
66739;SDS011;53653;52.188;8.602;2023-03-16T05:04:05;16.08;;;4.28;;
66739;SDS011;53653;52.188;8.602;2023-03-16T05:06:34;9.60;;;3.97;;
66739;SDS011;53653;52.188;8.602;2023-03-16T05:09:00;11.55;;;3.92;;
66739;SDS011;53653;52.188;8.602;2023-03-16T05:11:26;14.10;;;4.17;;
66739;SDS011;53653;52.188;8.602;2023-03-16T05:13:56;12.57;;;4.55;;
66739;SDS011;53653;52.188;8.602;2023-03-16T05:16:23;8.05;;;2.78;;
66739;SDS011;53653;52.188;8.602;2023-03-16T05:18:49;10.30;;;3.97;;
66739;SDS011;53653;52.188;8.602;2023-03-16T05:21:16;9.88;;;3.92;;
66739;SDS011;53653;52.188;8.602;2023-03-16T05:23:55;10.97;;;3.60;;
66739;SDS011;53653;52.188;8.602;2023-03-16T05:26:21;10.32;;;4.43;;
66739;SDS011;53653;52.188;8.602;2023-03-16T05:28:47;9.93;;;4.03;;
66739;SDS011;53653;52.188;8.602;2023-03-16T05:31:15;12.43;;;3.95;;
66739;SDS011;53653;52.188;8.602;2023-03-16T05:33:46;12.25;;;4.45;;
66739;SDS011;53653;52.188;8.602;2023-03-16T05:36:16;9.40;;;3.15;;
66739;SDS011;53653;52.188;8.602;2023-03-16T05:38:44;10.43;;;4.00;;
66739;SDS011;53653;52.188;8.602;2023-03-16T05:41:17;10.30;;;4.30;;
66739;SDS011;53653;52.188;8.602;2023-03-16T05:43:55;10.27;;;4.25;;
66739;SDS011;53653;52.188;8.602;2023-03-16T05:46:25;11.63;;;4.45;;
66739;SDS011;53653;52.188;8.602;2023-03-16T05:48:51;11.23;;;4.57;;
66739;SDS011;53653;52.188;8.602;2023-03-16T05:51:19;14.23;;;4.73;;
66739;SDS011;53653;52.188;8.602;2023-03-16T05:53:47;10.23;;;3.42;;
66739;SDS011;53653;52.188;8.602;2023-03-16T05:56:23;11.30;;;3.75;;
66739;SDS011;53653;52.188;8.602;2023-03-16T05:58:51;13.25;;;4.50;;
66739;SDS011;53653;52.188;8.602;2023-03-16T06:01:18;9.15;;;4.13;;
66739;SDS011;53653;52.188;8.602;2023-03-16T06:03:45;10.47;;;4.17;;
66739;SDS011;53653;52.188;8.602;2023-03-16T06:06:20;17.48;;;4.43;;
66739;SDS011;53653;52.188;8.602;2023-03-16T06:08:56;8.15;;;3.38;;
66739;SDS011;53653;52.188;8.602;2023-03-16T06:11:24;9.98;;;4.22;;
66739;SDS011;53653;52.188;8.602;2023-03-16T06:13:50;9.43;;;3.17;;
66739;SDS011;53653;52.188;8.602;2023-03-16T06:16:16;10.10;;;4.00;;
66739;SDS011;53653;52.188;8.602;2023-03-16T06:18:41;9.13;;;4.07;;
66739;SDS011;53653;52.188;8.602;2023-03-16T06:21:07;12.15;;;4.65;;
66739;SDS011;53653;52.188;8.602;2023-03-16T06:23:34;12.40;;;3.92;;
66739;SDS011;53653;52.188;8.602;2023-03-16T06:26:01;15.57;;;4.57;;
66739;SDS011;53653;52.188;8.602;2023-03-16T06:28:30;10.77;;;3.30;;
66739;SDS011;53653;52.188;8.602;2023-03-16T06:30:56;8.57;;;3.77;;
66739;SDS011;53653;52.188;8.602;2023-03-16T06:33:26;10.88;;;4.10;;
66739;SDS011;53653;52.188;8.602;2023-03-16T06:35:52;13.75;;;4.30;;
66739;SDS011;53653;52.188;8.602;2023-03-16T06:38:27;12.77;;;4.65;;
66739;SDS011;53653;52.188;8.602;2023-03-16T06:40:57;15.57;;;4.60;;
66739;SDS011;53653;52.188;8.602;2023-03-16T06:43:23;9.80;;;3.72;;
66739;SDS011;53653;52.188;8.602;2023-03-16T06:45:49;11.38;;;4.47;;
66739;SDS011;53653;52.188;8.602;2023-03-16T06:48:15;13.70;;;5.30;;
66739;SDS011;53653;52.188;8.602;2023-03-16T06:50:43;13.70;;;4.97;;
66739;SDS011;53653;52.188;8.602;2023-03-16T06:53:10;8.40;;;3.72;;
66739;SDS011;53653;52.188;8.602;2023-03-16T06:55:36;12.05;;;4.07;;
66739;SDS011;53653;52.188;8.602;2023-03-16T06:58:01;12.77;;;4.63;;
66739;SDS011;53653;52.188;8.602;2023-03-16T07:00:27;11.30;;;4.27;;
66739;SDS011;53653;52.188;8.602;2023-03-16T07:02:53;9.18;;;3.75;;
66739;SDS011;53653;52.188;8.602;2023-03-16T07:05:20;18.20;;;4.28;;
66739;SDS011;53653;52.188;8.602;2023-03-16T07:07:46;11.27;;;5.00;;
66739;SDS011;53653;52.188;8.602;2023-03-16T07:10:14;11.30;;;4.75;;
66739;SDS011;53653;52.188;8.602;2023-03-16T07:12:41;16.07;;;5.03;;
66739;SDS011;53653;52.188;8.602;2023-03-16T07:15:08;15.10;;;4.72;;
66739;SDS011;53653;52.188;8.602;2023-03-16T07:17:35;13.18;;;4.85;;
66739;SDS011;53653;52.188;8.602;2023-03-16T07:20:03;14.15;;;4.80;;
66739;SDS011;53653;52.188;8.602;2023-03-16T07:22:30;11.07;;;4.60;;
66739;SDS011;53653;52.188;8.602;2023-03-16T07:24:58;13.00;;;6.53;;
66739;SDS011;53653;52.188;8.602;2023-03-16T07:27:25;12.48;;;4.40;;
66739;SDS011;53653;52.188;8.602;2023-03-16T07:29:53;11.48;;;4.57;;
66739;SDS011;53653;52.188;8.602;2023-03-16T07:32:21;12.73;;;4.32;;
66739;SDS011;53653;52.188;8.602;2023-03-16T07:34:47;10.68;;;4.05;;
66739;SDS011;53653;52.188;8.602;2023-03-16T07:37:13;11.37;;;3.77;;
66739;SDS011;53653;52.188;8.602;2023-03-16T07:39:41;10.38;;;3.60;;
66739;SDS011;53653;52.188;8.602;2023-03-16T07:42:13;14.13;;;4.03;;
66739;SDS011;53653;52.188;8.602;2023-03-16T07:45:05;7.60;;;3.13;;
66739;SDS011;53653;52.188;8.602;2023-03-16T07:47:32;8.40;;;2.90;;
66739;SDS011;53653;52.188;8.602;2023-03-16T07:50:03;9.77;;;3.15;;
66739;SDS011;53653;52.188;8.602;2023-03-16T07:52:32;9.75;;;4.40;;
66739;SDS011;53653;52.188;8.602;2023-03-16T07:54:58;13.23;;;3.40;;
66739;SDS011;53653;52.188;8.602;2023-03-16T07:57:23;11.37;;;3.90;;
66739;SDS011;53653;52.188;8.602;2023-03-16T07:59:49;10.47;;;3.80;;
66739;SDS011;53653;52.188;8.602;2023-03-16T08:02:16;12.35;;;3.80;;
66739;SDS011;53653;52.188;8.602;2023-03-16T08:04:44;9.85;;;3.75;;
66739;SDS011;53653;52.188;8.602;2023-03-16T08:07:12;10.43;;;4.15;;
66739;SDS011;53653;52.188;8.602;2023-03-16T08:09:50;10.75;;;3.65;;
66739;SDS011;53653;52.188;8.602;2023-03-16T08:12:21;10.23;;;3.27;;
66739;SDS011;53653;52.188;8.602;2023-03-16T08:14:47;8.02;;;3.05;;
66739;SDS011;53653;52.188;8.602;2023-03-16T08:17:20;9.95;;;3.03;;
66739;SDS011;53653;52.188;8.602;2023-03-16T08:19:47;8.57;;;3.20;;
66739;SDS011;53653;52.188;8.602;2023-03-16T08:22:13;9.03;;;3.00;;
66739;SDS011;53653;52.188;8.602;2023-03-16T08:24:42;8.27;;;3.50;;
66739;SDS011;53653;52.188;8.602;2023-03-16T08:27:09;9.57;;;2.80;;
66739;SDS011;53653;52.188;8.602;2023-03-16T08:29:39;9.23;;;3.33;;
66739;SDS011;53653;52.188;8.602;2023-03-16T08:32:09;7.10;;;2.05;;
66739;SDS011;53653;52.188;8.602;2023-03-16T08:34:40;8.03;;;3.00;;
66739;SDS011;53653;52.188;8.602;2023-03-16T08:37:07;9.25;;;2.83;;
66739;SDS011;53653;52.188;8.602;2023-03-16T08:39:34;7.55;;;2.67;;
66739;SDS011;53653;52.188;8.602;2023-03-16T08:42:03;8.15;;;2.45;;
66739;SDS011;53653;52.188;8.602;2023-03-16T08:44:38;8.77;;;3.15;;
66739;SDS011;53653;52.188;8.602;2023-03-16T08:47:11;13.30;;;3.73;;
66739;SDS011;53653;52.188;8.602;2023-03-16T08:49:38;10.40;;;3.22;;
66739;SDS011;53653;52.188;8.602;2023-03-16T08:52:11;11.18;;;3.35;;
66739;SDS011;53653;52.188;8.602;2023-03-16T08:54:37;9.50;;;3.30;;
66739;SDS011;53653;52.188;8.602;2023-03-16T08:57:03;11.20;;;3.35;;
66739;SDS011;53653;52.188;8.602;2023-03-16T08:59:29;8.05;;;2.70;;
66739;SDS011;53653;52.188;8.602;2023-03-16T09:01:55;7.90;;;2.73;;
66739;SDS011;53653;52.188;8.602;2023-03-16T09:04:20;11.40;;;3.10;;
66739;SDS011;53653;52.188;8.602;2023-03-16T09:06:47;10.50;;;2.97;;
66739;SDS011;53653;52.188;8.602;2023-03-16T09:09:15;6.82;;;2.70;;
66739;SDS011;53653;52.188;8.602;2023-03-16T09:11:40;10.00;;;3.37;;
66739;SDS011;53653;52.188;8.602;2023-03-16T09:14:06;8.73;;;3.33;;
66739;SDS011;53653;52.188;8.602;2023-03-16T09:16:31;7.53;;;2.40;;
66739;SDS011;53653;52.188;8.602;2023-03-16T09:18:57;13.00;;;3.03;;
66739;SDS011;53653;52.188;8.602;2023-03-16T09:21:22;7.53;;;2.53;;
66739;SDS011;53653;52.188;8.602;2023-03-16T09:23:48;6.80;;;2.13;;
66739;SDS011;53653;52.188;8.602;2023-03-16T09:26:13;9.73;;;2.40;;
66739;SDS011;53653;52.188;8.602;2023-03-16T09:28:39;8.53;;;2.93;;
66739;SDS011;53653;52.188;8.602;2023-03-16T09:31:12;5.50;;;2.10;;
66739;SDS011;53653;52.188;8.602;2023-03-16T09:33:40;10.25;;;2.83;;
66739;SDS011;53653;52.188;8.602;2023-03-16T09:36:06;9.03;;;2.90;;
66739;SDS011;53653;52.188;8.602;2023-03-16T09:38:35;7.20;;;2.60;;
66739;SDS011;53653;52.188;8.602;2023-03-16T09:41:04;6.97;;;2.47;;
66739;SDS011;53653;52.188;8.602;2023-03-16T09:46:11;7.03;;;2.53;;
66739;SDS011;53653;52.188;8.602;2023-03-16T09:48:42;6.97;;;2.30;;
66739;SDS011;53653;52.188;8.602;2023-03-16T09:51:22;8.32;;;2.70;;
66739;SDS011;53653;52.188;8.602;2023-03-16T09:53:50;8.93;;;2.78;;
66739;SDS011;53653;52.188;8.602;2023-03-16T09:56:36;7.47;;;2.20;;
66739;SDS011;53653;52.188;8.602;2023-03-16T09:59:10;6.60;;;1.90;;
66739;SDS011;53653;52.188;8.602;2023-03-16T10:04:22;7.50;;;2.15;;
66739;SDS011;53653;52.188;8.602;2023-03-16T10:09:53;7.03;;;2.33;;
66739;SDS011;53653;52.188;8.602;2023-03-16T10:12:28;6.00;;;2.30;;
66739;SDS011;53653;52.188;8.602;2023-03-16T10:15:17;7.38;;;2.70;;
66739;SDS011;53653;52.188;8.602;2023-03-16T10:17:56;7.28;;;2.13;;
66739;SDS011;53653;52.188;8.602;2023-03-16T10:20:36;7.35;;;2.30;;
66739;SDS011;53653;52.188;8.602;2023-03-16T10:23:19;5.83;;;2.10;;
66739;SDS011;53653;52.188;8.602;2023-03-16T10:25:49;8.75;;;2.35;;
66739;SDS011;53653;52.188;8.602;2023-03-16T10:28:20;6.50;;;2.40;;
66739;SDS011;53653;52.188;8.602;2023-03-16T10:30:48;6.75;;;2.45;;
66739;SDS011;53653;52.188;8.602;2023-03-16T10:41:29;7.15;;;2.30;;
66739;SDS011;53653;52.188;8.602;2023-03-16T10:43:59;6.35;;;2.00;;
66739;SDS011;53653;52.188;8.602;2023-03-16T10:49:22;8.20;;;2.67;;
66739;SDS011;53653;52.188;8.602;2023-03-16T10:51:56;7.15;;;2.20;;
66739;SDS011;53653;52.188;8.602;2023-03-16T10:54:26;7.35;;;2.42;;
66739;SDS011;53653;52.188;8.602;2023-03-16T10:56:55;8.02;;;2.20;;
66739;SDS011;53653;52.188;8.602;2023-03-16T11:01:53;5.63;;;1.87;;
66739;SDS011;53653;52.188;8.602;2023-03-16T11:04:20;6.88;;;2.13;;
66739;SDS011;53653;52.188;8.602;2023-03-16T11:06:47;8.15;;;2.58;;
66739;SDS011;53653;52.188;8.602;2023-03-16T11:09:23;8.63;;;2.70;;
66739;SDS011;53653;52.188;8.602;2023-03-16T11:11:51;5.30;;;1.83;;
66739;SDS011;53653;52.188;8.602;2023-03-16T11:14:18;6.70;;;2.47;;
66739;SDS011;53653;52.188;8.602;2023-03-16T11:19:20;7.77;;;2.30;;
66739;SDS011;53653;52.188;8.602;2023-03-16T11:27:42;8.00;;;2.65;;
66739;SDS011;53653;52.188;8.602;2023-03-16T11:32:59;6.37;;;1.97;;
66739;SDS011;53653;52.188;8.602;2023-03-16T11:40:44;8.23;;;2.47;;
66739;SDS011;53653;52.188;8.602;2023-03-16T11:52:13;7.32;;;2.20;;
66739;SDS011;53653;52.188;8.602;2023-03-16T11:57:47;6.80;;;2.30;;
66739;SDS011;53653;52.188;8.602;2023-03-16T12:05:51;7.15;;;1.95;;
66739;SDS011;53653;52.188;8.602;2023-03-16T12:11:29;8.43;;;2.75;;
66739;SDS011;53653;52.188;8.602;2023-03-16T12:16:53;6.70;;;2.42;;
66739;SDS011;53653;52.188;8.602;2023-03-16T12:20:22;6.70;;;2.50;;
66739;SDS011;53653;52.188;8.602;2023-03-16T12:22:43;7.35;;;2.60;;
66739;SDS011;53653;52.188;8.602;2023-03-16T12:25:20;6.05;;;1.85;;
66739;SDS011;53653;52.188;8.602;2023-03-16T12:27:53;5.73;;;1.77;;
66739;SDS011;53653;52.188;8.602;2023-03-16T12:33:07;7.18;;;2.40;;
66739;SDS011;53653;52.188;8.602;2023-03-16T12:38:20;5.70;;;2.10;;
66739;SDS011;53653;52.188;8.602;2023-03-16T12:48:56;6.80;;;2.08;;
66739;SDS011;53653;52.188;8.602;2023-03-16T12:51:38;7.22;;;2.17;;
66739;SDS011;53653;52.188;8.602;2023-03-16T12:54:19;7.57;;;2.60;;
66739;SDS011;53653;52.188;8.602;2023-03-16T12:56:47;7.35;;;2.20;;
66739;SDS011;53653;52.188;8.602;2023-03-16T12:59:18;6.63;;;2.55;;
66739;SDS011;53653;52.188;8.602;2023-03-16T13:01:56;8.02;;;2.30;;
66739;SDS011;53653;52.188;8.602;2023-03-16T13:04:38;6.13;;;1.70;;
66739;SDS011;53653;52.188;8.602;2023-03-16T13:07:13;8.87;;;2.73;;
66739;SDS011;53653;52.188;8.602;2023-03-16T13:09:46;6.35;;;2.15;;
66739;SDS011;53653;52.188;8.602;2023-03-16T13:12:33;7.63;;;2.20;;
66739;SDS011;53653;52.188;8.602;2023-03-16T13:15:01;7.63;;;2.80;;
66739;SDS011;53653;52.188;8.602;2023-03-16T13:17:41;5.38;;;2.03;;
66739;SDS011;53653;52.188;8.602;2023-03-16T13:22:48;7.80;;;2.28;;
66739;SDS011;53653;52.188;8.602;2023-03-16T13:27:57;5.87;;;2.10;;
66739;SDS011;53653;52.188;8.602;2023-03-16T13:30:27;7.10;;;2.50;;
66739;SDS011;53653;52.188;8.602;2023-03-16T13:32:55;7.10;;;1.98;;
66739;SDS011;53653;52.188;8.602;2023-03-16T13:35:38;7.82;;;2.30;;
66739;SDS011;53653;52.188;8.602;2023-03-16T13:38:05;7.75;;;2.13;;
66739;SDS011;53653;52.188;8.602;2023-03-16T13:40:31;6.53;;;2.27;;
66739;SDS011;53653;52.188;8.602;2023-03-16T13:42:57;6.78;;;1.85;;
66739;SDS011;53653;52.188;8.602;2023-03-16T13:45:33;8.93;;;2.20;;
66739;SDS011;53653;52.188;8.602;2023-03-16T13:48:02;6.35;;;1.65;;
66739;SDS011;53653;52.188;8.602;2023-03-16T13:50:33;5.50;;;1.90;;
66739;SDS011;53653;52.188;8.602;2023-03-16T13:53:03;5.30;;;1.67;;
66739;SDS011;53653;52.188;8.602;2023-03-16T13:55:38;6.47;;;2.28;;
66739;SDS011;53653;52.188;8.602;2023-03-16T13:58:04;7.97;;;2.15;;
66739;SDS011;53653;52.188;8.602;2023-03-16T14:00:33;6.28;;;2.08;;
66739;SDS011;53653;52.188;8.602;2023-03-16T14:03:02;6.97;;;1.77;;
66739;SDS011;53653;52.188;8.602;2023-03-16T14:05:38;12.47;;;2.30;;
66739;SDS011;53653;52.188;8.602;2023-03-16T14:08:11;6.18;;;2.30;;
66739;SDS011;53653;52.188;8.602;2023-03-16T14:10:39;7.28;;;2.28;;
66739;SDS011;53653;52.188;8.602;2023-03-16T14:15:34;5.65;;;1.80;;
66739;SDS011;53653;52.188;8.602;2023-03-16T14:18:18;7.23;;;1.70;;
66739;SDS011;53653;52.188;8.602;2023-03-16T14:20:49;5.68;;;1.92;;
66739;SDS011;53653;52.188;8.602;2023-03-16T14:23:18;6.78;;;1.88;;
66739;SDS011;53653;52.188;8.602;2023-03-16T14:25:48;5.93;;;1.80;;
66739;SDS011;53653;52.188;8.602;2023-03-16T14:28:16;4.75;;;1.65;;
66739;SDS011;53653;52.188;8.602;2023-03-16T14:30:50;7.30;;;2.07;;
66739;SDS011;53653;52.188;8.602;2023-03-16T14:33:35;6.20;;;2.00;;
66739;SDS011;53653;52.188;8.602;2023-03-16T14:36:14;5.70;;;1.83;;
66739;SDS011;53653;52.188;8.602;2023-03-16T14:38:45;7.40;;;1.85;;
66739;SDS011;53653;52.188;8.602;2023-03-16T14:43:45;5.00;;;1.70;;
66739;SDS011;53653;52.188;8.602;2023-03-16T14:46:28;4.75;;;1.42;;
66739;SDS011;53653;52.188;8.602;2023-03-16T14:51:30;5.38;;;1.55;;
66739;SDS011;53653;52.188;8.602;2023-03-16T14:53:56;5.00;;;1.42;;
66739;SDS011;53653;52.188;8.602;2023-03-16T14:56:22;5.70;;;1.70;;
66739;SDS011;53653;52.188;8.602;2023-03-16T14:58:47;5.30;;;1.60;;
66739;SDS011;53653;52.188;8.602;2023-03-16T15:01:13;5.63;;;1.67;;
66739;SDS011;53653;52.188;8.602;2023-03-16T15:03:41;5.72;;;1.60;;
66739;SDS011;53653;52.188;8.602;2023-03-16T15:06:08;6.90;;;1.60;;
66739;SDS011;53653;52.188;8.602;2023-03-16T15:08:34;5.40;;;1.58;;
66739;SDS011;53653;52.188;8.602;2023-03-16T15:11:09;3.92;;;1.08;;
66739;SDS011;53653;52.188;8.602;2023-03-16T15:13:35;5.22;;;1.63;;
66739;SDS011;53653;52.188;8.602;2023-03-16T15:16:04;8.25;;;1.90;;
66739;SDS011;53653;52.188;8.602;2023-03-16T15:18:32;6.77;;;1.70;;
66739;SDS011;53653;52.188;8.602;2023-03-16T15:20:59;5.25;;;1.70;;
66739;SDS011;53653;52.188;8.602;2023-03-16T15:23:26;7.10;;;1.88;;
66739;SDS011;53653;52.188;8.602;2023-03-16T15:25:52;6.00;;;1.63;;
66739;SDS011;53653;52.188;8.602;2023-03-16T15:28:24;7.75;;;1.90;;
66739;SDS011;53653;52.188;8.602;2023-03-16T15:30:52;5.93;;;1.63;;
66739;SDS011;53653;52.188;8.602;2023-03-16T15:33:19;6.18;;;1.50;;
66739;SDS011;53653;52.188;8.602;2023-03-16T15:35:46;5.68;;;1.80;;
66739;SDS011;53653;52.188;8.602;2023-03-16T15:38:27;8.55;;;2.20;;
66739;SDS011;53653;52.188;8.602;2023-03-16T15:40:55;5.47;;;1.90;;
66739;SDS011;53653;52.188;8.602;2023-03-16T15:43:22;4.73;;;1.33;;
66739;SDS011;53653;52.188;8.602;2023-03-16T15:45:49;5.45;;;1.80;;
66739;SDS011;53653;52.188;8.602;2023-03-16T15:48:16;4.10;;;1.33;;
66739;SDS011;53653;52.188;8.602;2023-03-16T15:50:58;5.43;;;1.60;;
66739;SDS011;53653;52.188;8.602;2023-03-16T15:53:36;5.10;;;1.52;;
66739;SDS011;53653;52.188;8.602;2023-03-16T15:56:11;6.65;;;1.70;;
66739;SDS011;53653;52.188;8.602;2023-03-16T15:58:39;6.50;;;1.90;;
66739;SDS011;53653;52.188;8.602;2023-03-16T16:01:05;5.47;;;1.60;;
66739;SDS011;53653;52.188;8.602;2023-03-16T16:03:38;6.85;;;1.90;;
66739;SDS011;53653;52.188;8.602;2023-03-16T16:06:08;4.85;;;1.65;;
66739;SDS011;53653;52.188;8.602;2023-03-16T16:08:35;5.50;;;1.60;;
66739;SDS011;53653;52.188;8.602;2023-03-16T16:11:01;7.67;;;1.67;;
66739;SDS011;53653;52.188;8.602;2023-03-16T16:13:29;5.97;;;1.70;;
66739;SDS011;53653;52.188;8.602;2023-03-16T16:15:55;5.43;;;1.92;;
66739;SDS011;53653;52.188;8.602;2023-03-16T16:18:26;5.93;;;1.58;;
66739;SDS011;53653;52.188;8.602;2023-03-16T16:20:59;5.07;;;1.40;;
66739;SDS011;53653;52.188;8.602;2023-03-16T16:23:26;5.70;;;1.70;;
66739;SDS011;53653;52.188;8.602;2023-03-16T16:25:54;5.85;;;1.77;;
66739;SDS011;53653;52.188;8.602;2023-03-16T16:28:23;4.97;;;1.70;;
66739;SDS011;53653;52.188;8.602;2023-03-16T16:30:54;5.97;;;1.60;;
66739;SDS011;53653;52.188;8.602;2023-03-16T16:35:49;5.03;;;1.50;;
66739;SDS011;53653;52.188;8.602;2023-03-16T16:38:14;4.93;;;1.63;;
66739;SDS011;53653;52.188;8.602;2023-03-16T16:40:40;5.70;;;2.03;;
66739;SDS011;53653;52.188;8.602;2023-03-16T16:43:12;6.43;;;1.83;;
66739;SDS011;53653;52.188;8.602;2023-03-16T16:45:48;4.97;;;1.30;;